createdAt,value
2019-04-14T00:00:01.147Z,101354.38
2019-04-14T00:02:31.707Z,101366.60
2019-04-14T00:05:00.305Z,101361.80
2019-04-14T00:07:27.678Z,101367.04
2019-04-14T00:09:56.271Z,101363.56
2019-04-14T00:12:23.417Z,101370.19
2019-04-14T00:14:51.214Z,101367.05
2019-04-14T00:17:19.222Z,101371.88
2019-04-14T00:19:46.199Z,101363.63
2019-04-14T00:22:14.081Z,101368.83
2019-04-14T00:24:40.936Z,101363.99
2019-04-14T00:27:08.540Z,101368.92
2019-04-14T00:29:37.051Z,101369.45
2019-04-14T00:32:05.200Z,101378.63
2019-04-14T00:34:35.332Z,101375.09
2019-04-14T00:37:05.497Z,101367.62
2019-04-14T00:39:34.325Z,101374.14
2019-04-14T00:42:04.988Z,101376.41
2019-04-14T00:44:34.018Z,101377.30
2019-04-14T00:47:03.041Z,101379.49
2019-04-14T00:49:29.768Z,101383.38
2019-04-14T00:51:57.785Z,101378.54
2019-04-14T00:54:26.007Z,101380.33
2019-04-14T00:56:54.082Z,101387.73
2019-04-14T00:59:20.835Z,101383.77
2019-04-14T01:01:48.409Z,101378.55
2019-04-14T01:04:16.557Z,101386.41
2019-04-14T01:06:44.712Z,101386.50
2019-04-14T01:09:13.522Z,101386.03
2019-04-14T01:11:40.401Z,101381.69
2019-04-14T01:14:08.007Z,101389.93
2019-04-14T01:16:34.967Z,101388.77
2019-04-14T01:19:02.562Z,101390.89
2019-04-14T01:21:30.615Z,101391.34
2019-04-14T01:23:58.816Z,101396.55
2019-04-14T01:26:26.682Z,101397.39
2019-04-14T01:28:54.791Z,101394.28
2019-04-14T01:31:23.074Z,101398.17
2019-04-14T01:33:49.722Z,101391.62
2019-04-14T01:36:17.030Z,101389.12
2019-04-14T01:38:44.892Z,101396.13
2019-04-14T01:41:12.833Z,101389.69
2019-04-14T01:43:40.580Z,101396.53
2019-04-14T01:46:14.858Z,101391.81
2019-04-14T01:48:36.712Z,101398.39
2019-04-14T01:51:05.501Z,101392.23
2019-04-14T01:53:34.211Z,101391.85
2019-04-14T01:56:03.497Z,101389.23
2019-04-14T01:58:32.153Z,101385.78
2019-04-14T02:01:01.845Z,101383.19
2019-04-14T02:03:30.157Z,101393.23
2019-04-14T02:05:58.190Z,101392.74
2019-04-14T02:08:26.248Z,101397.19
2019-04-14T02:10:52.940Z,101396.73
2019-04-14T02:13:20.353Z,101393.27
2019-04-14T02:15:48.425Z,101391.09
2019-04-14T02:18:16.405Z,101394.17
2019-04-14T02:20:44.607Z,101394.66
2019-04-14T02:23:12.549Z,101396.37
2019-04-14T02:25:40.429Z,101399.42
2019-04-14T02:28:07.581Z,101392.03
2019-04-14T02:30:41.707Z,101399.87
2019-04-14T02:33:31.906Z,101402.48
2019-04-14T02:38:34.476Z,101406.92
2019-04-14T02:41:04.234Z,101402.13
2019-04-14T02:43:29.564Z,101403.39
2019-04-14T02:46:05.845Z,101403.02
2019-04-14T02:50:48.208Z,101404.78
2019-04-14T02:53:29.190Z,101408.69
2019-04-14T02:55:49.150Z,101405.67
2019-04-14T02:58:20.270Z,101410.05
2019-04-14T03:03:16.926Z,101416.53
2019-04-14T03:05:47.780Z,101407.01
2019-04-14T03:08:07.525Z,101411.34
2019-04-14T03:11:44.352Z,101413.09
2019-04-14T03:16:47.249Z,101417.89
2019-04-14T03:21:34.788Z,101420.47
2019-04-14T03:24:15.892Z,101425.25
2019-04-14T03:26:35.616Z,101421.76
2019-04-14T03:29:05.380Z,101427.83
2019-04-14T03:34:30.627Z,101427.83
2019-04-14T03:37:22.006Z,101429.98
2019-04-14T03:43:58.093Z,101435.59
2019-04-14T03:46:34.472Z,101431.64
2019-04-14T03:48:58.308Z,101436.85
2019-04-14T03:51:28.326Z,101437.75
2019-04-14T03:56:01.920Z,101445.10
2019-04-14T03:58:23.212Z,101442.89
2019-04-14T04:00:51.339Z,101448.57
2019-04-14T04:03:19.515Z,101445.12
2019-04-14T04:05:47.756Z,101442.97
2019-04-14T04:08:15.711Z,101448.56
2019-04-14T04:10:46.583Z,101452.97
2019-04-14T04:13:13.306Z,101450.81
2019-04-14T04:15:41.107Z,101445.20
2019-04-14T04:18:09.791Z,101454.27
2019-04-14T04:20:39.324Z,101447.36
2019-04-14T04:23:07.950Z,101449.11
2019-04-14T04:25:36.401Z,101450.44
2019-04-14T04:28:06.036Z,101454.76
2019-04-14T04:30:34.754Z,101455.23
2019-04-14T04:33:04.392Z,101455.23
2019-04-14T04:35:34.627Z,101451.33
2019-04-14T04:38:03.427Z,101460.87
2019-04-14T04:40:31.683Z,101460.44
2019-04-14T04:42:59.091Z,101457.83
2019-04-14T04:45:27.789Z,101461.72
2019-04-14T04:47:55.539Z,101465.23
2019-04-14T04:50:23.802Z,101459.56
2019-04-14T04:52:51.782Z,101470.85
2019-04-14T04:55:19.813Z,101475.20
2019-04-14T04:57:46.747Z,101476.07
2019-04-14T05:00:13.799Z,101473.91
2019-04-14T05:02:41.700Z,101475.20
2019-04-14T05:05:14.488Z,101477.81
2019-04-14T05:07:41.142Z,101483.03
2019-04-14T05:10:10.900Z,101479.97
2019-04-14T05:12:39.838Z,101485.61
2019-04-14T05:15:09.499Z,101489.98
2019-04-14T05:17:38.877Z,101488.68
2019-04-14T05:20:07.278Z,101490.84
2019-04-14T05:22:35.318Z,101494.76
2019-04-14T05:25:04.303Z,101488.69
2019-04-14T05:27:31.934Z,101492.14
2019-04-14T05:30:00.315Z,101487.37
2019-04-14T05:32:28.404Z,101488.25
2019-04-14T05:34:56.465Z,101493.91
2019-04-14T05:37:24.664Z,101493.44
2019-04-14T05:39:52.602Z,101493.45
2019-04-14T05:42:24.058Z,101496.89
2019-04-14T05:44:49.335Z,101497.72
2019-04-14T05:47:17.567Z,101503.38
2019-04-14T05:49:49.404Z,101503.75
2019-04-14T05:52:14.074Z,101505.94
2019-04-14T05:54:40.789Z,101506.41
2019-04-14T05:57:07.409Z,101500.23
2019-04-14T05:59:35.326Z,101502.30
2019-04-14T06:02:02.591Z,101503.09
2019-04-14T06:04:30.936Z,101508.30
2019-04-14T06:06:57.798Z,101510.39
2019-04-14T06:09:24.390Z,101503.34
2019-04-14T06:11:51.105Z,101507.14
2019-04-14T06:14:17.683Z,101498.65
2019-04-14T06:16:46.639Z,101502.48
2019-04-14T06:19:13.302Z,101501.38
2019-04-14T06:21:39.920Z,101500.94
2019-04-14T06:24:08.001Z,101506.77
2019-04-14T06:26:34.661Z,101507.34
2019-04-14T06:29:01.358Z,101510.05
2019-04-14T06:31:29.930Z,101511.09
2019-04-14T06:33:58.494Z,101513.33
2019-04-14T06:36:27.186Z,101510.98
2019-04-14T06:38:55.803Z,101516.91
2019-04-14T06:41:22.386Z,101514.91
2019-04-14T06:43:49.426Z,101513.48
2019-04-14T06:46:16.174Z,101516.13
2019-04-14T06:48:42.737Z,101516.01
2019-04-14T06:51:09.311Z,101515.28
2019-04-14T06:53:36.223Z,101520.81
2019-04-14T06:56:03.275Z,101518.80
2019-04-14T06:58:29.973Z,101515.70
2019-04-14T07:00:56.656Z,101520.16
2019-04-14T07:03:23.362Z,101524.13
2019-04-14T07:05:50.056Z,101529.58
2019-04-14T07:08:16.677Z,101533.95
2019-04-14T07:10:43.676Z,101521.80
2019-04-14T07:13:13.803Z,101521.40
2019-04-14T07:15:39.005Z,101525.25
2019-04-14T07:18:05.942Z,101519.98
2019-04-14T07:20:32.688Z,101529.83
2019-04-14T07:22:59.370Z,101534.38
2019-04-14T07:25:26.067Z,101522.41
2019-04-14T07:27:52.761Z,101531.05
2019-04-14T07:30:21.394Z,101525.89
2019-04-14T07:32:50.273Z,101529.84
2019-04-14T07:35:16.878Z,101526.61
2019-04-14T07:37:45.471Z,101523.95
2019-04-14T07:40:14.232Z,101530.61
2019-04-14T07:42:42.781Z,101535.98
2019-04-14T07:45:12.313Z,101530.19
2019-04-14T07:47:41.126Z,101536.42
2019-04-14T07:50:14.947Z,101531.23
2019-04-14T07:52:40.703Z,101525.31
2019-04-14T07:55:09.663Z,101525.00
2019-04-14T07:57:38.249Z,101518.97
2019-04-14T08:00:08.743Z,101532.16
2019-04-14T08:02:37.430Z,101530.23
2019-04-14T08:05:06.978Z,101533.98
2019-04-14T08:07:33.651Z,101525.59
2019-04-14T08:10:00.483Z,101527.48
2019-04-14T08:12:27.387Z,101522.20
2019-04-14T08:14:54.163Z,101532.59
2019-04-14T08:17:20.769Z,101526.54
2019-04-14T08:19:47.400Z,101532.70
2019-04-14T08:22:14.359Z,101531.27
2019-04-14T08:24:41.159Z,101521.87
2019-04-14T08:27:07.885Z,101526.92
2019-04-14T08:29:34.708Z,101525.55
2019-04-14T08:32:01.553Z,101522.37
2019-04-14T08:34:29.266Z,101521.80
2019-04-14T08:36:56.055Z,101525.71
2019-04-14T08:39:22.769Z,101509.53
2019-04-14T08:41:51.435Z,101526.04
2019-04-14T08:44:19.968Z,101510.80
2019-04-14T08:46:48.474Z,101518.42
2019-04-14T08:49:17.214Z,101521.03
2019-04-14T08:51:45.745Z,101530.21
2019-04-14T08:54:14.349Z,101516.62
2019-04-14T08:56:42.881Z,101529.91
2019-04-14T08:59:11.718Z,101533.78
2019-04-14T09:01:38.855Z,101518.59
2019-04-14T09:04:07.555Z,101523.31
2019-04-14T09:06:36.215Z,101528.30
2019-04-14T09:09:07.422Z,101521.65
2019-04-14T09:11:34.327Z,101528.77
2019-04-14T09:14:01.353Z,101517.80
2019-04-14T09:16:27.943Z,101530.86
2019-04-14T09:19:06.900Z,101528.59
2019-04-14T09:21:23.159Z,101523.23
2019-04-14T09:23:51.200Z,101529.55
2019-04-14T09:26:17.848Z,101526.00
2019-04-14T09:28:44.472Z,101534.05
2019-04-14T09:31:11.163Z,101531.70
2019-04-14T09:33:37.902Z,101541.23
2019-04-14T09:36:04.586Z,101543.45
2019-04-14T09:38:31.193Z,101537.61
2019-04-14T09:40:57.781Z,101535.67
2019-04-14T09:43:24.410Z,101543.09
2019-04-14T09:45:51.005Z,101537.48
2019-04-14T09:48:17.569Z,101545.08
2019-04-14T09:50:44.364Z,101541.78
2019-04-14T09:53:11.181Z,101541.60
2019-04-14T09:55:38.962Z,101538.70
2019-04-14T09:58:05.725Z,101530.99
2019-04-14T10:00:34.385Z,101534.33
2019-04-14T10:03:01.140Z,101537.34
2019-04-14T10:05:27.921Z,101527.55
2019-04-14T10:07:54.741Z,101535.20
2019-04-14T10:10:21.646Z,101530.56
2019-04-14T10:12:48.417Z,101534.58
2019-04-14T10:15:15.098Z,101527.89
2019-04-14T10:17:41.769Z,101525.35
2019-04-14T10:20:08.606Z,101522.76
2019-04-14T10:22:35.331Z,101527.30
2019-04-14T10:25:03.919Z,101526.50
2019-04-14T10:27:30.684Z,101524.95
2019-04-14T10:29:57.718Z,101516.42
2019-04-14T10:32:24.316Z,101521.56
2019-04-14T10:34:51.054Z,101511.33
2019-04-14T10:37:17.753Z,101517.70
2019-04-14T10:39:44.480Z,101526.93
2019-04-14T10:42:11.099Z,101510.52
2019-04-14T10:44:41.128Z,101508.84
2019-04-14T10:47:08.377Z,101508.74
2019-04-14T10:49:35.420Z,101510.16
2019-04-14T10:52:02.298Z,101506.92
2019-04-14T10:54:29.340Z,101496.86
2019-04-14T10:56:55.923Z,101520.34
2019-04-14T10:59:22.657Z,101507.15
2019-04-14T11:01:49.553Z,101500.59
2019-04-14T11:04:16.388Z,101512.23
2019-04-14T11:06:45.882Z,101501.80
2019-04-14T11:09:14.633Z,101491.30
2019-04-14T11:11:41.647Z,101500.23
2019-04-14T11:14:08.314Z,101488.13
2019-04-14T11:16:35.056Z,101486.97
2019-04-14T11:19:01.978Z,101484.92
2019-04-14T11:21:28.692Z,101492.39
2019-04-14T11:23:55.384Z,101501.47
2019-04-14T11:26:22.305Z,101497.69
2019-04-14T11:28:49.125Z,101504.62
2019-04-14T11:31:17.718Z,101485.23
2019-04-14T11:33:46.241Z,101487.63
2019-04-14T11:36:14.842Z,101487.27
2019-04-14T11:38:43.550Z,101485.14
2019-04-14T11:41:12.313Z,101482.50
2019-04-14T11:43:38.946Z,101475.95
2019-04-14T11:46:09.714Z,101475.78
2019-04-14T11:48:36.584Z,101477.80
2019-04-14T11:51:03.562Z,101467.09
2019-04-14T11:53:30.517Z,101472.14
2019-04-14T11:55:57.245Z,101465.88
2019-04-14T11:58:24.050Z,101479.91
2019-04-14T12:00:52.832Z,101475.77
2019-04-14T12:03:19.547Z,101468.73
2019-04-14T12:05:48.405Z,101467.66
2019-04-14T12:08:17.088Z,101471.63
2019-04-14T12:10:43.878Z,101459.97
2019-04-14T12:13:12.450Z,101464.34
2019-04-14T12:15:39.114Z,101454.42
2019-04-14T12:18:06.690Z,101457.54
2019-04-14T12:20:33.323Z,101449.44
2019-04-14T12:23:00.145Z,101453.48
2019-04-14T12:25:26.727Z,101456.54
2019-04-14T12:27:53.566Z,101453.77
2019-04-14T12:30:20.568Z,101453.27
2019-04-14T12:32:47.260Z,101447.64
2019-04-14T12:35:14.776Z,101456.69
2019-04-14T12:37:41.544Z,101456.12
2019-04-14T12:40:08.697Z,101448.48
2019-04-14T12:42:37.382Z,101446.64
2019-04-14T12:45:07.880Z,101453.20
2019-04-14T12:47:40.111Z,101449.22
2019-04-14T12:50:08.920Z,101430.58
2019-04-14T12:52:35.674Z,101439.41
2019-04-14T12:55:05.263Z,101433.84
2019-04-14T12:57:33.750Z,101430.23
2019-04-14T13:00:00.457Z,101433.91
2019-04-14T13:02:29.048Z,101418.77
2019-04-14T13:04:55.710Z,101430.58
2019-04-14T13:07:22.441Z,101429.03
2019-04-14T13:09:49.144Z,101422.91
2019-04-14T13:12:15.984Z,101430.41
2019-04-14T13:14:42.797Z,101438.23
2019-04-14T13:17:09.540Z,101438.30
2019-04-14T13:19:36.439Z,101423.61
2019-04-14T13:22:03.601Z,101428.25
2019-04-14T13:24:30.385Z,101429.17
2019-04-14T13:26:57.103Z,101421.71
2019-04-14T13:29:24.050Z,101425.77
2019-04-14T13:31:50.822Z,101420.67
2019-04-14T13:34:17.810Z,101413.84
2019-04-14T13:36:44.713Z,101419.08
2019-04-14T13:39:12.790Z,101413.60
2019-04-14T13:41:39.922Z,101411.45
2019-04-14T13:44:06.974Z,101413.16
2019-04-14T13:46:33.741Z,101421.08
2019-04-14T13:49:00.550Z,101413.84
2019-04-14T13:51:27.427Z,101414.38
2019-04-14T13:53:54.138Z,101415.03
2019-04-14T13:56:21.024Z,101418.74
2019-04-14T13:58:47.710Z,101414.09
2019-04-14T14:01:14.489Z,101403.27
2019-04-14T14:03:41.125Z,101412.19
2019-04-14T14:06:09.110Z,101407.06
2019-04-14T14:08:36.038Z,101401.69
2019-04-14T14:11:04.910Z,101402.68
2019-04-14T14:13:33.457Z,101389.73
2019-04-14T14:16:02.444Z,101386.48
2019-04-14T14:18:31.046Z,101397.64
2019-04-14T14:20:59.773Z,101396.56
2019-04-14T14:23:28.355Z,101394.89
2019-04-14T14:25:56.868Z,101391.44
2019-04-14T14:28:23.427Z,101394.28
2019-04-14T14:30:50.060Z,101396.47
2019-04-14T14:33:18.273Z,101402.65
2019-04-14T14:35:45.149Z,101401.49
2019-04-14T14:38:12.073Z,101405.59
2019-04-14T14:40:38.831Z,101393.31
2019-04-14T14:43:05.596Z,101394.16
2019-04-14T14:45:34.212Z,101392.13
2019-04-14T14:48:02.893Z,101388.74
2019-04-14T14:50:31.480Z,101393.53
2019-04-14T14:52:58.086Z,101389.44
2019-04-14T14:55:24.659Z,101388.20
2019-04-14T14:57:51.339Z,101391.91
2019-04-14T15:00:20.162Z,101391.47
2019-04-14T15:02:46.808Z,101383.27
2019-04-14T15:05:13.471Z,101390.06
2019-04-14T15:07:40.136Z,101395.48
2019-04-14T15:10:07.029Z,101389.11
2019-04-14T15:12:33.670Z,101397.34
2019-04-14T15:15:00.427Z,101398.00
2019-04-14T15:17:27.257Z,101401.35
2019-04-14T15:19:57.131Z,101400.34
2019-04-14T15:22:23.974Z,101398.49
2019-04-14T15:24:50.529Z,101400.95
2019-04-14T15:27:17.669Z,101403.31
2019-04-14T15:29:44.241Z,101400.31
2019-04-14T15:32:10.978Z,101409.41
2019-04-14T15:34:37.778Z,101405.58
2019-04-14T15:37:04.662Z,101400.66
2019-04-14T15:39:31.257Z,101404.95
2019-04-14T15:41:58.102Z,101401.00
2019-04-14T15:44:24.699Z,101397.41
2019-04-14T15:46:51.430Z,101398.16
2019-04-14T15:49:18.216Z,101398.69
2019-04-14T15:51:44.807Z,101406.17
2019-04-14T15:54:11.364Z,101399.28
2019-04-14T15:56:39.998Z,101407.63
2019-04-14T15:59:08.760Z,101410.08
2019-04-14T16:01:37.499Z,101402.43
2019-04-14T16:04:06.434Z,101420.73
2019-04-14T16:06:35.055Z,101413.37
2019-04-14T16:09:03.588Z,101416.98
2019-04-14T16:11:32.071Z,101416.37
2019-04-14T16:14:01.035Z,101420.16
2019-04-14T16:16:29.680Z,101419.33
2019-04-14T16:18:58.263Z,101409.36
2019-04-14T16:21:26.318Z,101420.47
2019-04-14T16:23:52.929Z,101417.83
2019-04-14T16:26:19.783Z,101418.47
2019-04-14T16:28:48.342Z,101424.97
2019-04-14T16:31:16.944Z,101428.29
2019-04-14T16:33:45.470Z,101432.92
2019-04-14T16:36:12.377Z,101434.37
2019-04-14T16:39:36.905Z,101425.55
2019-04-14T16:42:05.226Z,101430.65
2019-04-14T16:44:31.923Z,101439.41
2019-04-14T16:46:58.616Z,101435.50
2019-04-14T16:49:25.324Z,101436.23
2019-04-14T16:51:54.377Z,101440.16
2019-04-14T16:54:22.906Z,101443.22
2019-04-14T16:56:51.448Z,101449.87
2019-04-14T16:59:18.003Z,101446.12
2019-04-14T17:01:46.055Z,101450.92
2019-04-14T17:04:15.629Z,101454.35
2019-04-14T17:06:42.339Z,101458.28
2019-04-14T17:09:08.978Z,101455.97
2019-04-14T17:11:39.231Z,101454.33
2019-04-14T17:14:07.858Z,101460.99
2019-04-14T17:16:37.546Z,101462.56
2019-04-14T17:19:06.197Z,101468.98
2019-04-14T17:21:37.933Z,101464.09
2019-04-14T17:24:16.261Z,101481.75
2019-04-14T17:26:37.192Z,101478.27
2019-04-14T17:29:05.780Z,101478.41
2019-04-14T17:31:34.556Z,101484.92
2019-04-14T17:34:03.051Z,101483.73
2019-04-14T17:36:31.768Z,101480.35
2019-04-14T17:39:01.995Z,101486.20
2019-04-14T17:41:32.504Z,101489.25
2019-04-14T17:44:01.223Z,101488.02
2019-04-14T17:46:29.999Z,101500.36
2019-04-14T17:48:56.969Z,101499.44
2019-04-14T17:51:25.596Z,101506.66
2019-04-14T17:53:54.305Z,101508.03
2019-04-14T17:57:18.796Z,101510.84
2019-04-14T17:59:47.352Z,101511.55
2019-04-14T18:02:16.001Z,101513.45
2019-04-14T18:04:44.784Z,101522.90
2019-04-14T18:07:13.421Z,101526.56
2019-04-14T18:09:42.086Z,101526.17
2019-04-14T18:12:12.577Z,101524.80
2019-04-14T18:14:41.110Z,101533.92
2019-04-14T18:17:09.814Z,101532.63
2019-04-14T18:19:38.513Z,101533.45
2019-04-14T18:22:05.307Z,101542.60
2019-04-14T18:24:42.060Z,101543.16
2019-04-14T18:27:02.106Z,101544.02
2019-04-14T18:29:30.852Z,101545.37
2019-04-14T18:31:59.497Z,101547.14
2019-04-14T18:34:28.213Z,101553.62
2019-04-14T18:36:56.828Z,101554.61
2019-04-14T18:39:25.333Z,101554.33
2019-04-14T18:41:53.872Z,101562.11
2019-04-14T18:44:22.626Z,101553.17
2019-04-14T18:46:51.179Z,101563.26
2019-04-14T18:49:20.324Z,101566.39
2019-04-14T18:51:51.124Z,101560.98
2019-04-14T18:54:20.025Z,101568.97
2019-04-14T18:56:46.690Z,101565.58
2019-04-14T18:59:15.558Z,101566.92
2019-04-14T19:01:44.147Z,101570.80
2019-04-14T19:04:10.733Z,101571.30
2019-04-14T19:06:37.419Z,101577.90
2019-04-14T19:09:06.716Z,101582.64
2019-04-14T19:11:37.131Z,101580.20
2019-04-14T19:14:05.691Z,101577.57
2019-04-14T19:16:39.593Z,101582.11
2019-04-14T19:19:04.581Z,101590.42
2019-04-14T19:21:32.174Z,101588.14
2019-04-14T19:23:58.952Z,101588.81
2019-04-14T19:26:25.710Z,101586.23
2019-04-14T19:28:52.314Z,101589.28
2019-04-14T19:31:19.097Z,101588.45
2019-04-14T19:33:47.046Z,101589.75
2019-04-14T19:36:13.863Z,101592.58
2019-04-14T19:38:42.340Z,101590.13
2019-04-14T19:41:09.571Z,101599.22
2019-04-14T19:43:36.525Z,101597.41
2019-04-14T19:46:03.635Z,101596.22
2019-04-14T19:48:30.982Z,101603.31
2019-04-14T19:50:58.047Z,101601.25
2019-04-14T19:53:25.247Z,101599.50
2019-04-14T19:55:52.472Z,101600.31
2019-04-14T19:58:19.509Z,101605.60
2019-04-14T20:00:46.924Z,101618.31
2019-04-14T20:03:13.690Z,101615.64
2019-04-14T20:05:45.280Z,101614.30
2019-04-14T20:08:15.069Z,101618.73
2019-04-14T20:10:42.849Z,101621.30
2019-04-14T20:13:10.060Z,101622.19
2019-04-14T20:15:39.181Z,101625.23
2019-04-14T20:18:08.027Z,101624.84
2019-04-14T20:20:36.683Z,101633.61
2019-04-14T20:23:05.892Z,101637.52
2019-04-14T20:25:34.716Z,101633.63
2019-04-14T20:28:03.519Z,101635.04
2019-04-14T20:30:32.886Z,101642.87
2019-04-14T20:32:59.723Z,101637.23
2019-04-14T20:35:26.770Z,101641.18
2019-04-14T20:37:53.405Z,101647.73
2019-04-14T20:40:20.118Z,101643.76
2019-04-14T20:42:46.809Z,101648.56
2019-04-14T20:45:14.074Z,101644.25
2019-04-14T20:47:40.749Z,101651.70
2019-04-14T20:50:08.073Z,101656.04
2019-04-14T20:52:36.614Z,101653.44
2019-04-14T20:55:05.831Z,101654.31
2019-04-14T20:57:32.641Z,101652.98
2019-04-14T20:59:59.577Z,101659.10
2019-04-14T21:02:28.307Z,101651.27
2019-04-14T21:04:54.927Z,101658.66
2019-04-14T21:07:23.614Z,101656.07
2019-04-14T21:09:52.132Z,101653.03
2019-04-14T21:12:20.804Z,101656.94
2019-04-14T21:14:49.454Z,101660.84
2019-04-14T21:17:17.936Z,101660.42
2019-04-14T21:19:46.631Z,101661.73
2019-04-14T21:22:16.683Z,101656.06
2019-04-14T21:24:45.263Z,101669.52
2019-04-14T21:27:14.299Z,101672.98
2019-04-14T21:29:42.887Z,101670.41
2019-04-14T21:32:11.546Z,101665.19
2019-04-14T21:34:40.206Z,101670.38
2019-04-14T21:37:08.683Z,101672.12
2019-04-14T21:39:40.392Z,101679.06
2019-04-14T21:42:06.979Z,101672.09
2019-04-14T21:44:33.553Z,101676.00
2019-04-14T21:47:00.403Z,101682.93
2019-04-14T21:49:27.071Z,101679.86
2019-04-14T21:51:55.788Z,101683.31
2019-04-14T21:54:22.551Z,101684.69
2019-04-14T21:56:51.427Z,101692.91
2019-04-14T21:59:19.910Z,101694.98
2019-04-14T22:01:48.815Z,101685.07
2019-04-14T22:04:17.716Z,101683.77
2019-04-14T22:06:46.476Z,101690.67
2019-04-14T22:09:15.177Z,101692.89
2019-04-14T22:11:42.017Z,101696.36
2019-04-14T22:14:08.659Z,101694.98
2019-04-14T22:16:35.508Z,101699.28
2019-04-14T22:19:02.086Z,101701.47
2019-04-14T22:21:28.660Z,101703.54
2019-04-14T22:24:01.644Z,101698.87
2019-04-14T22:26:26.221Z,101708.84
2019-04-14T22:28:52.521Z,101703.64
2019-04-14T22:31:19.185Z,101707.98
2019-04-14T22:33:45.967Z,101708.44
2019-04-14T22:36:12.535Z,101707.87
2019-04-14T22:38:40.674Z,101709.69
2019-04-14T22:41:07.422Z,101708.47
2019-04-14T22:43:33.987Z,101712.73
2019-04-14T22:46:00.602Z,101710.98
2019-04-14T22:48:27.251Z,101717.73
2019-04-14T22:50:53.891Z,101717.42
2019-04-14T22:53:20.585Z,101715.22
2019-04-14T22:55:47.186Z,101713.49
2019-04-14T22:58:14.002Z,101712.27
2019-04-14T23:00:42.963Z,101713.47
2019-04-14T23:03:11.673Z,101709.60
2019-04-14T23:05:40.313Z,101713.02
2019-04-14T23:08:17.563Z,101710.87
2019-04-14T23:10:46.031Z,101704.91
2019-04-14T23:13:14.710Z,101710.02
2019-04-14T23:15:43.422Z,101708.27
2019-04-14T23:18:12.051Z,101710.31
2019-04-14T23:20:41.574Z,101716.35
2019-04-14T23:23:10.277Z,101707.69
2019-04-14T23:25:37.147Z,101714.55
2019-04-14T23:28:03.975Z,101716.68
2019-04-14T23:30:30.829Z,101711.59
2019-04-14T23:32:57.537Z,101710.80
2019-04-14T23:35:24.372Z,101707.28
2019-04-14T23:37:51.036Z,101728.56
2019-04-14T23:40:17.978Z,101724.58
2019-04-14T23:42:44.742Z,101725.42
2019-04-14T23:45:11.692Z,101725.91
2019-04-14T23:47:38.565Z,101721.13
2019-04-14T23:50:07.104Z,101732.22
2019-04-14T23:52:33.738Z,101723.63
2019-04-14T23:55:00.303Z,101722.67
2019-04-14T23:57:26.938Z,101730.00
2019-04-14T23:59:53.621Z,101732.16
